Time;durP1;ratioP1;P1;durP2;ratioP2;P2;SDS_P1;SDS_P2;PMS_P1;PMS_P2;Temp;Humidity;BMP_temperature;BMP_pressure;BME280_temperature;BME280_humidity;BME280_pressure;Samples;Min_cycle;Max_cycle;Signal;HPM_P1;HPM_P2
2021/09/29 00:00:00;;;;;;;;;;;;;;;12.72;100.00;98396.25;4987004;28;19925;-83
2021/09/29 00:02:37;;;;;;;;;;;;;;;13.01;100.00;98409.31;5019579;28;19968;-83
2021/09/29 00:05:05;;;;;;;;;;;;;;;12.85;100.00;98404.63;5003384;28;20308;-83
2021/09/29 00:07:32;;;;;;;;;;;;;;;12.60;100.00;98419.50;5019543;28;20339;-82
2021/09/29 00:09:59;;;;;;;;;;;;;;;12.58;100.00;98424.00;5037078;28;19931;-82
2021/09/29 00:12:27;;;;;;;;;;;;;;;12.73;100.00;98420.25;5035711;28;20385;-82
2021/09/29 00:14:54;;;;;;;;;;;;;;;12.88;100.00;98420.53;5019331;28;20291;-82
2021/09/29 00:17:21;;;;;;;;;;;;;;;12.80;100.00;98438.06;5037149;28;19925;-82
2021/09/29 00:19:48;;;;;;;;;;;;;;;12.51;100.00;98430.59;5036983;28;19925;-83
2021/09/29 00:22:15;;;;;;;;;;;;;;;12.22;100.00;98432.78;5018818;28;19926;-82
2021/09/29 00:24:42;;;;;;;;;;;;;;;12.39;100.00;98431.41;5019114;28;20399;-82
2021/09/29 00:27:09;;;;;;;;;;;;;;;12.60;100.00;98443.94;5028754;28;19948;-82
2021/09/29 00:29:39;;;;;;;;;;;;;;;11.91;100.00;98443.00;5019830;28;20407;-82
2021/09/29 00:32:08;;;;;;;;;;;;;;;12.24;100.00;98430.31;5002842;28;20292;-82
2021/09/29 00:34:40;;;;;;;;;;;;;;;12.30;100.00;98431.31;5019128;28;19925;-82
2021/09/29 00:37:08;;;;;;;;;;;;;;;12.51;100.00;98433.41;5026158;28;19936;-82
2021/09/29 00:39:35;;;;;;;;;;;;;;;12.35;100.00;98449.56;5036405;28;20284;-82
2021/09/29 00:42:03;;;;;;;;;;;;;;;12.10;100.00;98450.38;5036364;28;19925;-82
2021/09/29 00:44:30;;;;;;;;;;;;;;;12.15;100.00;98451.81;4984214;28;20392;-83
2021/09/29 00:46:57;;;;;;;;;;;;;;;12.21;100.00;98445.22;5036651;28;20380;-83
2021/09/29 00:49:24;;;;;;;;;;;;;;;12.56;100.00;98449.66;5015184;28;20377;-83
2021/09/29 00:51:51;;;;;;;;;;;;;;;12.60;100.00;98450.31;5015260;28;20388;-83
2021/09/29 00:54:18;;;;;;;;;;;;;;;12.15;100.00;98452.63;4999075;28;19976;-82
2021/09/29 00:56:46;;;;;;;;;;;;;;;12.24;100.00;98449.13;4999914;28;19947;-82
2021/09/29 00:59:13;;;;;;;;;;;;;;;12.40;100.00;98451.81;4998797;28;19929;-82
2021/09/29 01:01:40;;;;;;;;;;;;;;;12.30;100.00;98450.13;5015309;28;20266;-82
2021/09/29 01:04:08;;;;;;;;;;;;;;;12.21;100.00;98455.63;5015120;28;19937;-83
2021/09/29 01:06:35;;;;;;;;;;;;;;;12.63;100.00;98455.03;5016214;28;19925;-83
2021/09/29 01:09:04;;;;;;;;;;;;;;;12.67;100.00;98458.50;4982740;28;19929;-83
2021/09/29 01:11:39;;;;;;;;;;;;;;;12.73;100.00;98470.72;4998467;28;19925;-83
2021/09/29 01:14:06;;;;;;;;;;;;;;;12.63;100.00;98462.66;5001549;28;20481;-83
2021/09/29 01:16:35;;;;;;;;;;;;;;;12.40;100.00;98465.81;4998410;28;20388;-83
2021/09/29 01:19:03;;;;;;;;;;;;;;;12.39;100.00;98467.03;4998404;28;20172;-83
2021/09/29 01:21:37;;;;;;;;;;;;;;;12.58;100.00;98471.63;5005980;28;19948;-82
2021/09/29 01:24:04;;;;;;;;;;;;;;;12.30;100.00;98475.34;5015867;28;20004;-82
2021/09/29 01:26:32;;;;;;;;;;;;;;;12.66;100.00;98465.31;5018048;28;19925;-82
2021/09/29 01:29:10;;;;;;;;;;;;;;;12.38;100.00;98459.88;5004768;28;19964;-82
2021/09/29 01:31:38;;;;;;;;;;;;;;;12.22;100.00;98469.19;5011053;28;19926;-81
2021/09/29 01:34:06;;;;;;;;;;;;;;;12.15;100.00;98469.41;5014495;28;19926;-81
2021/09/29 01:36:33;;;;;;;;;;;;;;;12.29;100.00;98454.97;5009733;28;19975;-81
2021/09/29 01:39:01;;;;;;;;;;;;;;;12.13;100.00;98455.06;5024414;28;19925;-81
2021/09/29 01:41:29;;;;;;;;;;;;;;;12.21;100.00;98450.03;4999429;28;19947;-81
2021/09/29 01:43:57;;;;;;;;;;;;;;;12.15;100.00;98452.63;5003171;28;20008;-81
2021/09/29 01:46:26;;;;;;;;;;;;;;;12.41;100.00;98461.78;5017401;28;19930;-82
2021/09/29 01:49:06;;;;;;;;;;;;;;;12.31;100.00;98465.72;4981452;28;19932;-82
2021/09/29 01:51:36;;;;;;;;;;;;;;;12.28;100.00;98472.22;5014110;28;19933;-81
2021/09/29 01:54:05;;;;;;;;;;;;;;;12.06;100.00;98482.50;5014046;28;19926;-81
2021/09/29 01:56:33;;;;;;;;;;;;;;;12.12;100.00;98480.72;5014701;28;19925;-81
2021/09/29 01:59:04;;;;;;;;;;;;;;;12.27;100.00;98488.25;4998017;28;19925;-82
2021/09/29 02:01:38;;;;;;;;;;;;;;;12.27;100.00;98493.84;5018359;28;19936;-82
2021/09/29 02:04:06;;;;;;;;;;;;;;;12.48;100.00;98501.56;5013916;28;19961;-82
2021/09/29 02:06:53;;;;;;;;;;;;;;;12.68;100.00;98502.09;5018741;28;19937;-82
2021/09/29 02:09:20;;;;;;;;;;;;;;;12.73;100.00;98507.16;4997800;28;19960;-82
2021/09/29 02:11:48;;;;;;;;;;;;;;;12.77;100.00;98501.41;4981959;28;19969;-82
2021/09/29 02:14:20;;;;;;;;;;;;;;;12.33;100.00;98503.25;4997599;28;19925;-82
2021/09/29 02:16:47;;;;;;;;;;;;;;;12.11;100.00;98507.97;5013600;28;19948;-82
2021/09/29 02:19:15;;;;;;;;;;;;;;;12.13;100.00;98524.31;5016266;28;19933;-81
2021/09/29 02:21:43;;;;;;;;;;;;;;;11.92;100.00;98517.34;4994369;28;19932;-81
2021/09/29 02:24:10;;;;;;;;;;;;;;;11.98;100.00;98521.16;4993837;28;19978;-81
2021/09/29 02:26:37;;;;;;;;;;;;;;;11.61;100.00;98526.63;5014903;28;19965;-81
2021/09/29 02:29:08;;;;;;;;;;;;;;;11.56;100.00;98533.56;5013982;28;20271;-81
2021/09/29 02:31:35;;;;;;;;;;;;;;;11.82;100.00;98524.03;5013187;28;20004;-81
2021/09/29 02:34:03;;;;;;;;;;;;;;;12.49;100.00;98536.78;5014716;28;19926;-81
2021/09/29 02:36:30;;;;;;;;;;;;;;;12.07;100.00;98540.88;4965276;28;19926;-81
2021/09/29 02:38:57;;;;;;;;;;;;;;;11.22;100.00;98541.72;5013629;28;19925;-81
2021/09/29 02:41:25;;;;;;;;;;;;;;;11.59;100.00;98546.66;5022208;28;19925;-81
2021/09/29 02:43:51;;;;;;;;;;;;;;;11.74;100.00;98561.09;5014766;28;20392;-81
2021/09/29 02:46:19;;;;;;;;;;;;;;;11.76;100.00;98564.22;5012259;28;19929;-81
2021/09/29 02:48:46;;;;;;;;;;;;;;;12.02;100.00;98551.84;4999628;28;19926;-82
2021/09/29 02:51:13;;;;;;;;;;;;;;;12.22;100.00;98553.22;5033704;28;20031;-82
2021/09/29 02:53:40;;;;;;;;;;;;;;;11.81;100.00;98567.25;5016565;28;19925;-81
2021/09/29 02:56:07;;;;;;;;;;;;;;;11.75;100.00;98563.44;5016795;28;20288;-81
2021/09/29 02:58:34;;;;;;;;;;;;;;;11.81;100.00;98570.06;5015468;28;19925;-81
2021/09/29 03:01:02;;;;;;;;;;;;;;;11.85;100.00;98581.13;5024974;28;19932;-81
2021/09/29 03:03:29;;;;;;;;;;;;;;;11.82;100.00;98591.22;5016415;28;19933;-81
2021/09/29 03:05:56;;;;;;;;;;;;;;;11.72;100.00;98597.88;5026160;28;19976;-81
2021/09/29 03:08:23;;;;;;;;;;;;;;;11.82;100.00;98602.41;5016302;28;20020;-81
2021/09/29 03:10:50;;;;;;;;;;;;;;;11.98;100.00;98599.53;5016449;28;20014;-80
2021/09/29 03:13:17;;;;;;;;;;;;;;;11.54;100.00;98580.78;5007040;28;20018;-80
2021/09/29 03:15:44;;;;;;;;;;;;;;;12.03;100.00;98571.00;5012288;28;19925;-81
2021/09/29 03:18:12;;;;;;;;;;;;;;;11.97;100.00;98569.97;5034243;28;19925;-80
2021/09/29 03:20:38;;;;;;;;;;;;;;;12.10;100.00;98584.78;5021169;28;19925;-81
2021/09/29 03:23:06;;;;;;;;;;;;;;;11.93;100.00;98579.72;5028946;28;19926;-81
2021/09/29 03:25:33;;;;;;;;;;;;;;;11.66;100.00;98571.66;5034027;28;19925;-81
2021/09/29 03:28:01;;;;;;;;;;;;;;;11.74;100.00;98575.84;5018819;28;19933;-81
2021/09/29 03:30:28;;;;;;;;;;;;;;;12.02;100.00;98589.03;5007796;28;19925;-81
2021/09/29 03:32:55;;;;;;;;;;;;;;;12.18;100.00;98602.97;5016581;28;19925;-81
2021/09/29 03:35:24;;;;;;;;;;;;;;;11.96;100.00;98604.03;5034383;28;19925;-81
2021/09/29 03:37:51;;;;;;;;;;;;;;;11.82;100.00;98608.00;5016139;28;20344;-81
2021/09/29 03:40:18;;;;;;;;;;;;;;;11.41;100.00;98613.50;4999708;28;19932;-80
2021/09/29 03:42:45;;;;;;;;;;;;;;;11.47;100.00;98614.53;5033443;28;19948;-80
2021/09/29 03:45:12;;;;;;;;;;;;;;;11.36;100.00;98614.03;5003219;28;19932;-81
2021/09/29 03:47:44;;;;;;;;;;;;;;;11.22;100.00;98628.41;5022925;28;19925;-80
2021/09/29 03:50:12;;;;;;;;;;;;;;;11.27;100.00;98630.66;4998272;28;19925;-80
2021/09/29 03:52:40;;;;;;;;;;;;;;;11.76;100.00;98631.38;5011869;28;20451;-81
2021/09/29 03:55:08;;;;;;;;;;;;;;;11.66;100.00;98627.63;5013243;28;19925;-80
2021/09/29 03:57:35;;;;;;;;;;;;;;;11.55;100.00;98627.13;5013976;28;20377;-81
2021/09/29 04:00:07;;;;;;;;;;;;;;;11.61;100.00;98635.75;4998759;28;19933;-81
2021/09/29 04:02:35;;;;;;;;;;;;;;;11.77;100.00;98642.13;5014205;28;19925;-81
2021/09/29 04:05:03;;;;;;;;;;;;;;;12.01;100.00;98643.44;5013849;28;19925;-81
2021/09/29 04:07:29;;;;;;;;;;;;;;;12.03;100.00;98635.41;5012087;28;19929;-81
2021/09/29 04:09:56;;;;;;;;;;;;;;;12.11;100.00;98641.59;4996433;28;19929;-81
2021/09/29 04:12:24;;;;;;;;;;;;;;;12.07;100.00;98647.28;5012145;28;19926;-81
2021/09/29 04:14:51;;;;;;;;;;;;;;;11.65;100.00;98659.66;4976976;28;19933;-81
2021/09/29 04:17:19;;;;;;;;;;;;;;;11.91;100.00;98669.75;4992411;28;19925;-81
2021/09/29 04:19:46;;;;;;;;;;;;;;;11.44;100.00;98671.38;5016185;28;20020;-81
2021/09/29 04:22:13;;;;;;;;;;;;;;;11.62;100.00;98668.09;5009652;28;19991;-81
2021/09/29 04:24:41;;;;;;;;;;;;;;;11.64;100.00;98669.28;5035840;28;19925;-81
2021/09/29 04:27:08;;;;;;;;;;;;;;;11.69;100.00;98660.34;5028209;28;19929;-80
2021/09/29 04:29:36;;;;;;;;;;;;;;;11.51;100.00;98664.81;5019891;28;19932;-80
2021/09/29 04:32:07;;;;;;;;;;;;;;;11.39;100.00;98663.50;4980148;28;20018;-81
2021/09/29 04:34:35;;;;;;;;;;;;;;;11.43;100.00;98658.63;4979999;28;19992;-81
2021/09/29 04:37:02;;;;;;;;;;;;;;;11.55;100.00;98671.09;5016543;28;19926;-81
2021/09/29 04:39:29;;;;;;;;;;;;;;;11.20;100.00;98667.19;5004379;28;20340;-81
2021/09/29 04:41:56;;;;;;;;;;;;;;;11.23;100.00;98660.72;5015621;28;20262;-81
2021/09/29 04:44:23;;;;;;;;;;;;;;;11.06;100.00;98664.72;5000088;28;19972;-81
2021/09/29 04:46:50;;;;;;;;;;;;;;;10.93;100.00;98653.44;5003195;28;19929;-81
2021/09/29 04:49:17;;;;;;;;;;;;;;;10.73;100.00;98668.72;4999991;28;19925;-81
2021/09/29 04:51:44;;;;;;;;;;;;;;;10.79;100.00;98664.97;5036350;28;20580;-81
2021/09/29 04:54:11;;;;;;;;;;;;;;;10.79;100.00;98675.38;5019085;28;20404;-82
2021/09/29 04:56:39;;;;;;;;;;;;;;;10.84;100.00;98667.25;5036196;28;19928;-81
2021/09/29 04:59:06;;;;;;;;;;;;;;;10.80;100.00;98660.16;5018536;28;19924;-81
2021/09/29 05:01:34;;;;;;;;;;;;;;;10.88;100.00;98667.16;5036298;28;19925;-81
2021/09/29 05:04:01;;;;;;;;;;;;;;;10.69;100.00;98662.44;5018745;28;19925;-81
2021/09/29 05:06:28;;;;;;;;;;;;;;;10.66;100.00;98672.44;5018687;28;19925;-81
2021/09/29 05:08:55;;;;;;;;;;;;;;;10.73;100.00;98677.09;5035992;28;19925;-81
2021/09/29 05:11:25;;;;;;;;;;;;;;;10.85;100.00;98694.00;5018788;28;20015;-81
2021/09/29 05:13:52;;;;;;;;;;;;;;;10.37;100.00;98693.06;5018644;28;19925;-81
2021/09/29 05:16:19;;;;;;;;;;;;;;;10.44;100.00;98702.06;5038187;28;20367;-81
2021/09/29 05:18:46;;;;;;;;;;;;;;;10.35;100.00;98712.25;5026033;28;19932;-81
2021/09/29 05:21:13;;;;;;;;;;;;;;;10.54;100.00;98719.84;5035726;28;20393;-81
2021/09/29 05:23:40;;;;;;;;;;;;;;;10.57;100.00;98727.38;5018479;28;19932;-81
2021/09/29 05:26:07;;;;;;;;;;;;;;;10.66;100.00;98727.56;5004187;28;20490;-81
2021/09/29 05:28:35;;;;;;;;;;;;;;;11.34;100.00;98728.38;5046269;28;20000;-81
2021/09/29 05:31:03;;;;;;;;;;;;;;;11.35;100.00;98732.75;5017570;28;19925;-81
2021/09/29 05:33:31;;;;;;;;;;;;;;;11.19;100.00;98726.34;4997707;28;20012;-82
2021/09/29 05:35:58;;;;;;;;;;;;;;;11.40;100.00;98735.03;5029228;28;19960;-82
2021/09/29 05:38:25;;;;;;;;;;;;;;;11.59;100.00;98744.53;5041062;28;19999;-81
2021/09/29 05:40:52;;;;;;;;;;;;;;;11.66;100.00;98747.19;5024473;28;19979;-82
2021/09/29 05:43:19;;;;;;;;;;;;;;;11.43;100.00;98742.53;5001685;28;19925;-82
2021/09/29 05:45:46;;;;;;;;;;;;;;;11.40;100.00;98749.00;4985339;28;19925;-85
2021/09/29 05:48:13;;;;;;;;;;;;;;;11.70;100.00;98748.69;5035104;28;19931;-85
2021/09/29 05:50:40;;;;;;;;;;;;;;;11.76;100.00;98748.94;5017071;28;20398;-88
2021/09/29 05:53:07;;;;;;;;;;;;;;;11.70;100.00;98751.47;5017552;28;20047;-89
2021/09/29 05:55:35;;;;;;;;;;;;;;;11.62;100.00;98747.28;5016381;28;20396;-88
2021/09/29 05:58:02;;;;;;;;;;;;;;;11.29;100.00;98759.66;4995237;28;20399;-84
2021/09/29 06:00:30;;;;;;;;;;;;;;;11.08;100.00;98768.53;5017262;28;20355;-85
2021/09/29 06:02:57;;;;;;;;;;;;;;;10.88;100.00;98773.38;5017541;28;19925;-85
2021/09/29 06:05:24;;;;;;;;;;;;;;;11.20;100.00;98776.25;5019380;28;19968;-84
2021/09/29 06:07:51;;;;;;;;;;;;;;;11.28;100.00;98780.47;4965688;28;19925;-85
2021/09/29 06:10:19;;;;;;;;;;;;;;;11.08;100.00;98776.94;5017084;28;19931;-84
2021/09/29 06:12:46;;;;;;;;;;;;;;;10.95;100.00;98795.56;5001781;28;20401;-84
2021/09/29 06:15:20;;;;;;;;;;;;;;;11.21;100.00;98800.19;5017640;28;19932;-84
2021/09/29 06:17:56;;;;;;;;;;;;;;;11.66;100.00;98794.78;5034488;28;20023;-85
2021/09/29 06:20:23;;;;;;;;;;;;;;;11.47;100.00;98804.78;5040848;28;19925;-84
2021/09/29 06:22:51;;;;;;;;;;;;;;;11.83;100.00;98799.16;5034361;28;20012;-84
2021/09/29 06:25:20;;;;;;;;;;;;;;;11.81;100.00;98808.00;4984809;28;20008;-84
2021/09/29 06:27:47;;;;;;;;;;;;;;;11.54;100.00;98821.38;4984334;28;19925;-84
2021/09/29 06:30:14;;;;;;;;;;;;;;;11.33;100.00;98816.28;5000773;28;19925;-84
2021/09/29 06:32:42;;;;;;;;;;;;;;;11.60;100.00;98814.03;5027974;28;19932;-84
2021/09/29 06:35:09;;;;;;;;;;;;;;;11.38;100.00;98813.00;5004268;28;19925;-84
2021/09/29 06:37:42;;;;;;;;;;;;;;;11.18;100.00;98814.28;5033043;28;19925;-84
2021/09/29 06:40:10;;;;;;;;;;;;;;;11.17;100.00;98830.25;4981363;28;19928;-85
2021/09/29 06:42:39;;;;;;;;;;;;;;;11.01;100.00;98837.81;5027431;28;19956;-84
2021/09/29 06:45:07;;;;;;;;;;;;;;;11.10;100.00;98844.41;5010912;28;20449;-84
2021/09/29 06:47:34;;;;;;;;;;;;;;;10.82;100.00;98858.94;5012114;28;19940;-84
2021/09/29 06:50:01;;;;;;;;;;;;;;;10.82;100.00;98861.75;5024790;28;19948;-84
2021/09/29 06:52:28;;;;;;;;;;;;;;;11.11;100.00;98871.13;4993719;28;19924;-84
2021/09/29 06:54:55;;;;;;;;;;;;;;;11.29;100.00;98865.94;5020644;28;19936;-84
2021/09/29 06:57:23;;;;;;;;;;;;;;;11.11;100.00;98859.16;5016495;28;20373;-84
2021/09/29 06:59:50;;;;;;;;;;;;;;;11.34;100.00;98873.81;5006951;28;20048;-83
2021/09/29 07:02:17;;;;;;;;;;;;;;;11.28;100.00;98858.78;5016528;28;19925;-84
2021/09/29 07:04:44;;;;;;;;;;;;;;;11.37;100.00;98877.75;5016843;28;20257;-84
2021/09/29 07:07:11;;;;;;;;;;;;;;;11.37;100.00;98886.94;4999863;28;20027;-84
2021/09/29 07:09:38;;;;;;;;;;;;;;;11.58;100.00;98900.47;5032796;28;19925;-84
2021/09/29 07:12:06;;;;;;;;;;;;;;;11.21;100.00;98908.47;4983812;28;19933;-90
2021/09/29 07:14:33;;;;;;;;;;;;;;;11.34;100.00;98918.59;4997063;28;20588;-82
2021/09/29 07:17:00;;;;;;;;;;;;;;;11.23;100.00;98901.22;4975471;28;19925;-82
2021/09/29 07:19:28;;;;;;;;;;;;;;;11.28;100.00;98897.13;5046064;28;20017;-83
2021/09/29 07:21:55;;;;;;;;;;;;;;;11.21;100.00;98902.91;4983294;28;19925;-84
2021/09/29 07:24:22;;;;;;;;;;;;;;;10.92;100.00;98913.84;5015952;28;19925;-83
2021/09/29 07:26:49;;;;;;;;;;;;;;;11.20;100.00;98918.88;5016055;28;20261;-84
2021/09/29 07:29:16;;;;;;;;;;;;;;;11.07;100.00;98940.31;5029671;28;20045;-84
2021/09/29 07:31:43;;;;;;;;;;;;;;;10.64;100.00;98937.53;5012798;28;19925;-88
2021/09/29 07:34:12;;;;;;;;;;;;;;;10.65;100.00;98949.50;5011773;28;19929;-85
2021/09/29 07:36:39;;;;;;;;;;;;;;;11.09;100.00;98957.44;5013035;28;20380;-85
2021/09/29 07:39:07;;;;;;;;;;;;;;;11.06;100.00;98971.50;5031140;28;19925;-87
2021/09/29 07:41:36;;;;;;;;;;;;;;;11.07;100.00;98965.50;5030612;28;20039;-87
2021/09/29 07:44:06;;;;;;;;;;;;;;;11.56;100.00;98980.44;5030126;28;19925;-86
2021/09/29 07:46:33;;;;;;;;;;;;;;;11.72;100.00;98955.34;5013460;28;19925;-85
2021/09/29 07:49:01;;;;;;;;;;;;;;;11.89;100.00;98970.97;5030901;28;19929;-83
2021/09/29 07:51:28;;;;;;;;;;;;;;;12.96;100.00;98954.66;5032741;28;19925;-82
2021/09/29 07:53:55;;;;;;;;;;;;;;;13.26;100.00;98950.63;5042508;28;19947;-85
2021/09/29 07:56:22;;;;;;;;;;;;;;;14.30;100.00;98957.09;5041018;28;19925;-85
2021/09/29 07:58:49;;;;;;;;;;;;;;;14.81;100.00;98947.34;5016480;28;19925;-83
2021/09/29 08:01:16;;;;;;;;;;;;;;;14.51;100.00;98955.63;5034700;28;19932;-89
2021/09/29 08:03:46;;;;;;;;;;;;;;;14.11;100.00;98947.63;5002454;28;20250;-91
2021/09/29 08:06:13;;;;;;;;;;;;;;;13.24;100.00;98958.72;5010112;28;19925;-90
2021/09/29 08:08:40;;;;;;;;;;;;;;;13.43;100.00;98983.03;5015069;28;19937;-87
2021/09/29 08:11:07;;;;;;;;;;;;;;;12.72;100.00;98976.50;5001222;28;19925;-88
2021/09/29 08:13:35;;;;;;;;;;;;;;;12.40;100.00;98970.16;5052459;28;19974;-86
2021/09/29 08:16:03;;;;;;;;;;;;;;;12.33;100.00;98979.50;5038637;28;20457;-87
2021/09/29 08:18:31;;;;;;;;;;;;;;;11.63;100.00;98969.91;5019804;28;20023;-80
2021/09/29 08:21:00;;;;;;;;;;;;;;;12.06;100.00;98981.75;5025359;28;19924;-88
2021/09/29 08:23:37;;;;;;;;;;;;;;;12.69;100.00;98980.19;5004565;28;19925;-86
2021/09/29 08:31:52;;;;;;;;;;;;;;;12.82;100.00;98985.06;5035142;28;19929;-90
2021/09/29 08:39:52;;;;;;;;;;;;;;;13.09;100.00;98977.97;5030405;28;20431;-80
2021/09/29 08:42:33;;;;;;;;;;;;;;;12.91;100.00;98979.63;5016174;28;19925;-81
2021/09/29 08:45:10;;;;;;;;;;;;;;;12.38;100.00;98984.59;5016722;28;20020;-81
2021/09/29 09:17:27;;;;;;;;;;;;;;;12.22;100.00;99028.63;5032971;28;19933;-84
2021/09/29 09:19:55;;;;;;;;;;;;;;;11.95;100.00;99031.59;5030211;28;19926;-83
2021/09/29 09:22:32;;;;;;;;;;;;;;;11.83;100.00;99053.91;4989859;28;19925;-84
2021/09/29 09:24:59;;;;;;;;;;;;;;;11.71;100.00;99058.13;5013217;28;19947;-84
2021/09/29 09:27:36;;;;;;;;;;;;;;;11.84;100.00;99069.47;5014968;28;19929;-84
2021/09/29 09:30:03;;;;;;;;;;;;;;;12.31;100.00;99073.63;5046710;28;19948;-84
2021/09/29 09:32:39;;;;;;;;;;;;;;;12.61;100.00;99085.31;5016544;28;20035;-84
2021/09/29 09:35:09;;;;;;;;;;;;;;;12.46;100.00;99077.69;5020184;28;19932;-84
2021/09/29 09:37:37;;;;;;;;;;;;;;;12.97;100.00;99090.03;5007362;28;19972;-85
2021/09/29 09:40:09;;;;;;;;;;;;;;;12.88;100.00;99084.25;4999865;28;19925;-84
2021/09/29 09:42:40;;;;;;;;;;;;;;;13.17;100.00;99093.56;5027098;28;20019;-84
2021/09/29 09:45:08;;;;;;;;;;;;;;;13.14;100.00;99074.81;4980745;28;19932;-84
2021/09/29 09:47:44;;;;;;;;;;;;;;;12.76;100.00;99080.16;5043422;28;19925;-84
2021/09/29 09:50:23;;;;;;;;;;;;;;;12.80;100.00;99085.69;5020529;28;20307;-84
2021/09/29 09:52:50;;;;;;;;;;;;;;;12.77;100.00;99087.31;4991193;28;19925;-84
2021/09/29 09:55:18;;;;;;;;;;;;;;;12.58;100.00;99097.41;4999704;28;20296;-84
2021/09/29 09:57:50;;;;;;;;;;;;;;;12.92;100.00;99107.41;5043124;28;20384;-84
2021/09/29 10:00:23;;;;;;;;;;;;;;;13.16;100.00;99111.66;5020444;28;20371;-83
2021/09/29 10:02:58;;;;;;;;;;;;;;;13.80;100.00;99108.69;5043016;28;19971;-84
2021/09/29 10:05:28;;;;;;;;;;;;;;;13.75;100.00;99124.06;5000260;28;19929;-84
2021/09/29 10:07:56;;;;;;;;;;;;;;;13.63;100.00;99126.81;5006373;28;19925;-84
2021/09/29 10:10:29;;;;;;;;;;;;;;;13.37;100.00;99131.53;5006821;28;19925;-84
2021/09/29 10:27:10;;;;;;;;;;;;;;;10.72;100.00;99167.34;5033367;28;20400;-84
2021/09/29 10:29:39;;;;;;;;;;;;;;;10.69;100.00;99190.56;5015477;28;19952;-84
2021/09/29 10:32:15;;;;;;;;;;;;;;;11.06;100.00;99187.56;5015504;28;19988;-84
2021/09/29 10:34:55;;;;;;;;;;;;;;;10.95;100.00;99176.56;5050395;28;20299;-84
2021/09/29 10:42:54;;;;;;;;;;;;;;;10.49;100.00;99242.72;5007074;28;20385;-83
2021/09/29 10:45:32;;;;;;;;;;;;;;;9.93;100.00;99243.34;4995764;28;19925;-84
2021/09/29 11:10:37;;;;;;;;;;;;;;;11.27;100.00;99225.63;5018256;28;20073;-84
2021/09/29 11:29:51;;;;;;;;;;;;;;;11.63;100.00;99223.81;4971189;28;20369;-84
2021/09/29 11:32:34;;;;;;;;;;;;;;;11.74;100.00;99239.19;4931098;28;19926;-84
2021/09/29 11:35:15;;;;;;;;;;;;;;;11.27;100.00;99231.97;4939199;28;19959;-84
2021/09/29 12:10:30;;;;;;;;;;;;;;;12.39;100.00;99285.97;5034466;28;19979;-84
2021/09/29 12:13:01;;;;;;;;;;;;;;;12.64;100.00;99283.47;4984599;28;20388;-84
2021/09/29 12:15:28;;;;;;;;;;;;;;;12.54;100.00;99287.28;5031005;28;19971;-84
2021/09/29 12:17:55;;;;;;;;;;;;;;;12.88;100.00;99303.78;5036928;28;19935;-84
2021/09/29 12:22:53;;;;;;;;;;;;;;;12.89;100.00;99302.56;5030573;28;20019;-84
2021/09/29 12:25:36;;;;;;;;;;;;;;;12.46;100.00;99307.47;4998366;28;19926;-83
2021/09/29 12:31:11;;;;;;;;;;;;;;;12.99;100.00;99304.38;5014434;28;20027;-83
2021/09/29 12:34:00;;;;;;;;;;;;;;;12.63;100.00;99300.72;4970788;28;19929;-83
2021/09/29 12:36:31;;;;;;;;;;;;;;;12.36;100.00;99309.25;5015118;28;19987;-83
2021/09/29 12:38:59;;;;;;;;;;;;;;;12.74;100.00;99324.50;5018153;28;20387;-83
2021/09/29 12:41:28;;;;;;;;;;;;;;;13.33;100.00;99318.06;5001125;28;20411;-84
2021/09/29 12:44:02;;;;;;;;;;;;;;;13.59;100.00;99317.03;5001894;28;19925;-84
2021/09/29 12:46:29;;;;;;;;;;;;;;;13.18;100.00;99317.56;5003304;28;19925;-83
2021/09/29 12:48:56;;;;;;;;;;;;;;;12.97;100.00;99311.59;5021114;28;20339;-85
2021/09/29 12:51:25;;;;;;;;;;;;;;;13.20;100.00;99323.56;5017690;28;19925;-84
2021/09/29 12:53:56;;;;;;;;;;;;;;;13.56;100.00;99315.09;5019215;28;19937;-84
2021/09/29 12:56:23;;;;;;;;;;;;;;;13.45;100.00;99320.19;5014923;28;20019;-84
2021/09/29 12:58:50;;;;;;;;;;;;;;;13.56;100.00;99329.13;5028525;28;19937;-84
2021/09/29 13:01:17;;;;;;;;;;;;;;;13.03;100.00;99321.13;5034174;28;19940;-83
2021/09/29 13:03:44;;;;;;;;;;;;;;;13.57;100.00;99331.50;5011243;28;20329;-82
2021/09/29 13:06:12;;;;;;;;;;;;;;;13.72;100.00;99327.13;5017104;28;19926;-83
2021/09/29 13:08:40;;;;;;;;;;;;;;;14.04;100.00;99332.72;5018519;28;19932;-85
2021/09/29 13:11:07;;;;;;;;;;;;;;;13.53;100.00;99338.44;4999860;28;20014;-84
2021/09/29 13:13:35;;;;;;;;;;;;;;;13.22;100.00;99326.72;5038357;28;19979;-83
2021/09/29 13:16:05;;;;;;;;;;;;;;;12.98;100.00;99322.41;4999206;28;19932;-83
2021/09/29 13:21:26;;;;;;;;;;;;;;;13.86;100.00;99345.63;5029408;28;20395;-84
2021/09/29 13:24:02;;;;;;;;;;;;;;;13.31;100.00;99334.53;5032982;28;19932;-82
2021/09/29 13:37:32;;;;;;;;;;;;;;;12.80;100.00;99354.84;5044600;28;19936;-84
2021/09/29 13:39:59;;;;;;;;;;;;;;;13.07;100.00;99372.34;5011438;28;20156;-82
2021/09/29 13:42:26;;;;;;;;;;;;;;;13.54;100.00;99365.28;5017061;28;19925;-83
2021/09/29 13:44:53;;;;;;;;;;;;;;;13.44;100.00;99366.31;5001136;28;20188;-82
2021/09/29 13:47:21;;;;;;;;;;;;;;;13.11;100.00;99375.88;5004682;28;20344;-83
2021/09/29 13:49:47;;;;;;;;;;;;;;;13.15;100.00;99363.34;5033349;28;19929;-83
2021/09/29 13:52:19;;;;;;;;;;;;;;;13.13;100.00;99367.81;5016385;28;19975;-82
2021/09/29 13:54:50;;;;;;;;;;;;;;;13.18;100.00;99382.13;5000387;28;20371;-83
2021/09/29 13:57:29;;;;;;;;;;;;;;;13.40;100.00;99380.44;5004118;28;19997;-83
2021/09/29 14:00:06;;;;;;;;;;;;;;;13.48;100.00;99379.03;5016355;28;20347;-83
2021/09/29 14:02:51;;;;;;;;;;;;;;;14.03;100.00;99383.75;5033877;28;19924;-82
2021/09/29 14:30:24;;;;;;;;;;;;;;;13.69;100.00;99403.03;5018426;28;19951;-80
2021/09/29 14:33:05;;;;;;;;;;;;;;;14.01;100.00;99411.50;5011954;28;20516;-80
2021/09/29 14:35:33;;;;;;;;;;;;;;;14.30;100.00;99416.00;5034046;28;19925;-81
2021/09/29 14:38:00;;;;;;;;;;;;;;;13.85;100.00;99408.66;5046477;28;20434;-79
2021/09/29 14:40:27;;;;;;;;;;;;;;;13.45;100.00;99407.19;5049844;28;19960;-80
2021/09/29 14:42:55;;;;;;;;;;;;;;;13.60;100.00;99416.88;5006200;28;20288;-80
2021/09/29 14:45:22;;;;;;;;;;;;;;;13.50;100.00;99434.75;5015457;28;19925;-78
2021/09/29 14:47:49;;;;;;;;;;;;;;;13.04;100.00;99423.72;5033054;28;20019;-79
2021/09/29 14:50:16;;;;;;;;;;;;;;;13.07;100.00;99436.88;5032432;28;19975;-78
2021/09/29 14:52:43;;;;;;;;;;;;;;;12.77;100.00;99418.19;5015634;28;20019;-78
2021/09/29 14:55:10;;;;;;;;;;;;;;;13.05;100.00;99430.88;5018294;28;19976;-79
2021/09/29 14:57:37;;;;;;;;;;;;;;;12.96;100.00;99399.78;5042055;28;20012;-79
2021/09/29 15:00:05;;;;;;;;;;;;;;;13.31;100.00;99446.78;5027649;28;19925;-79
2021/09/29 15:02:33;;;;;;;;;;;;;;;13.17;100.00;99435.84;5015021;28;19964;-79
2021/09/29 15:05:00;;;;;;;;;;;;;;;13.11;100.00;99438.38;5033454;28;19956;-79
2021/09/29 15:07:27;;;;;;;;;;;;;;;13.35;100.00;99437.06;5048589;28;19999;-79
2021/09/29 15:09:54;;;;;;;;;;;;;;;13.15;100.00;99438.28;5052806;28;19951;-79
2021/09/29 15:12:21;;;;;;;;;;;;;;;13.40;100.00;99444.19;5052416;28;19936;-79
2021/09/29 15:17:22;;;;;;;;;;;;;;;13.26;100.00;99455.72;5046032;28;19931;-79
2021/09/29 15:19:55;;;;;;;;;;;;;;;13.36;100.00;99429.47;5045604;28;19929;-79
2021/09/29 15:30:06;;;;;;;;;;;;;;;13.92;100.00;99447.81;5012707;28;20396;-78
2021/09/29 15:46:13;;;;;;;;;;;;;;;14.14;100.00;99448.91;5009117;28;20458;-79
2021/09/29 15:52:00;;;;;;;;;;;;;;;13.59;100.00;99483.47;5034858;28;19931;-78
2021/09/29 16:13:42;;;;;;;;;;;;;;;12.30;100.00;99520.31;4918508;29;20375;-78
2021/09/29 16:32:20;;;;;;;;;;;;;;;12.61;100.00;99539.44;4920327;29;20088;-78
2021/09/29 16:34:59;;;;;;;;;;;;;;;12.69;100.00;99532.47;4953813;28;19927;-78
2021/09/29 16:37:27;;;;;;;;;;;;;;;12.71;100.00;99540.47;5009893;28;20307;-78
2021/09/29 16:39:57;;;;;;;;;;;;;;;12.81;100.00;99547.13;5032868;28;19925;-78
2021/09/29 16:42:25;;;;;;;;;;;;;;;12.67;100.00;99548.94;5017744;28;19925;-78